sensor_id;sensor_type;location;lat;lon;timestamp;pressure;altitude;pressure_sealevel;temperature;humidity
29359;BME280;16347;53.232;6.556;2023-04-28T00:00:01;101710.81;;;11.58;50.88
29359;BME280;16347;53.232;6.556;2023-04-28T00:02:30;101713.09;;;11.53;51.40
29359;BME280;16347;53.232;6.556;2023-04-28T00:04:58;101697.75;;;11.52;50.98
29359;BME280;16347;53.232;6.556;2023-04-28T00:07:26;101696.06;;;11.51;50.52
29359;BME280;16347;53.232;6.556;2023-04-28T00:09:54;101708.09;;;11.39;50.58
29359;BME280;16347;53.232;6.556;2023-04-28T00:12:22;101700.34;;;11.35;50.70
29359;BME280;16347;53.232;6.556;2023-04-28T00:14:50;101702.50;;;11.41;50.57
29359;BME280;16347;53.232;6.556;2023-04-28T00:17:19;101702.78;;;11.38;50.88
29359;BME280;16347;53.232;6.556;2023-04-28T00:19:48;101699.50;;;11.34;50.77
29359;BME280;16347;53.232;6.556;2023-04-28T00:22:16;101693.88;;;11.36;50.52
29359;BME280;16347;53.232;6.556;2023-04-28T00:24:44;101679.28;;;11.37;50.86
29359;BME280;16347;53.232;6.556;2023-04-28T00:27:12;101681.59;;;11.41;50.83
29359;BME280;16347;53.232;6.556;2023-04-28T00:29:40;101667.13;;;11.31;50.43
29359;BME280;16347;53.232;6.556;2023-04-28T00:32:08;101663.25;;;11.24;50.78
29359;BME280;16347;53.232;6.556;2023-04-28T00:34:38;101660.94;;;11.29;50.55
29359;BME280;16347;53.232;6.556;2023-04-28T00:37:06;101657.06;;;11.22;50.51
29359;BME280;16347;53.232;6.556;2023-04-28T00:39:33;101654.91;;;11.25;50.87
29359;BME280;16347;53.232;6.556;2023-04-28T00:42:01;101651.19;;;11.26;50.28
29359;BME280;16347;53.232;6.556;2023-04-28T00:44:30;101643.16;;;11.25;50.71
29359;BME280;16347;53.232;6.556;2023-04-28T00:46:58;101646.63;;;11.27;50.08
29359;BME280;16347;53.232;6.556;2023-04-28T00:49:26;101645.47;;;11.29;50.83
29359;BME280;16347;53.232;6.556;2023-04-28T00:51:55;101636.44;;;11.29;49.77
29359;BME280;16347;53.232;6.556;2023-04-28T00:54:24;101632.84;;;11.28;49.52
29359;BME280;16347;53.232;6.556;2023-04-28T00:56:53;101632.56;;;11.31;49.57
29359;BME280;16347;53.232;6.556;2023-04-28T00:59:21;101629.13;;;11.29;49.11
29359;BME280;16347;53.232;6.556;2023-04-28T01:01:49;101613.22;;;11.15;48.47
29359;BME280;16347;53.232;6.556;2023-04-28T01:04:19;101608.22;;;11.11;48.75
29359;BME280;16347;53.232;6.556;2023-04-28T01:06:48;101609.34;;;11.08;48.44
29359;BME280;16347;53.232;6.556;2023-04-28T01:09:18;101607.78;;;11.06;48.59
29359;BME280;16347;53.232;6.556;2023-04-28T01:11:49;101606.50;;;11.00;48.35
29359;BME280;16347;53.232;6.556;2023-04-28T01:14:30;101607.66;;;10.98;48.88
29359;BME280;16347;53.232;6.556;2023-04-28T01:16:59;101597.31;;;11.01;48.92
29359;BME280;16347;53.232;6.556;2023-04-28T01:19:27;101604.06;;;10.97;48.80
29359;BME280;16347;53.232;6.556;2023-04-28T01:21:55;101609.06;;;11.02;48.66
29359;BME280;16347;53.232;6.556;2023-04-28T01:24:25;101607.50;;;10.99;48.89
29359;BME280;16347;53.232;6.556;2023-04-28T01:26:56;101612.53;;;11.04;48.74
29359;BME280;16347;53.232;6.556;2023-04-28T01:29:24;101608.34;;;11.09;49.01
29359;BME280;16347;53.232;6.556;2023-04-28T01:31:53;101606.34;;;11.11;48.74
29359;BME280;16347;53.232;6.556;2023-04-28T01:34:21;101601.22;;;11.18;48.47
29359;BME280;16347;53.232;6.556;2023-04-28T01:36:49;101599.31;;;11.18;48.85
29359;BME280;16347;53.232;6.556;2023-04-28T01:39:17;101596.47;;;11.20;48.47
29359;BME280;16347;53.232;6.556;2023-04-28T01:41:47;101579.56;;;11.16;49.15
29359;BME280;16347;53.232;6.556;2023-04-28T01:44:16;101587.03;;;11.14;49.28
29359;BME280;16347;53.232;6.556;2023-04-28T01:46:47;101584.16;;;11.16;48.72
29359;BME280;16347;53.232;6.556;2023-04-28T01:49:15;101578.13;;;11.12;49.30
29359;BME280;16347;53.232;6.556;2023-04-28T01:51:43;101571.81;;;11.12;49.24
29359;BME280;16347;53.232;6.556;2023-04-28T01:54:12;101566.53;;;11.10;49.54
29359;BME280;16347;53.232;6.556;2023-04-28T01:56:41;101559.53;;;11.08;49.52
29359;BME280;16347;53.232;6.556;2023-04-28T01:59:13;101544.63;;;11.02;49.65
29359;BME280;16347;53.232;6.556;2023-04-28T02:01:41;101542.47;;;11.06;50.19
29359;BME280;16347;53.232;6.556;2023-04-28T02:04:09;101536.34;;;11.04;49.71
29359;BME280;16347;53.232;6.556;2023-04-28T02:06:37;101531.59;;;11.06;49.96
29359;BME280;16347;53.232;6.556;2023-04-28T02:09:05;101526.44;;;11.03;50.19
29359;BME280;16347;53.232;6.556;2023-04-28T02:11:33;101534.59;;;11.03;50.10
29359;BME280;16347;53.232;6.556;2023-04-28T02:14:01;101523.75;;;10.84;50.38
29359;BME280;16347;53.232;6.556;2023-04-28T02:16:31;101520.16;;;10.93;50.50
29359;BME280;16347;53.232;6.556;2023-04-28T02:18:59;101514.28;;;10.88;50.63
29359;BME280;16347;53.232;6.556;2023-04-28T02:21:27;101494.09;;;10.90;50.97
29359;BME280;16347;53.232;6.556;2023-04-28T02:23:55;101488.09;;;10.87;51.09
29359;BME280;16347;53.232;6.556;2023-04-28T02:26:23;101491.66;;;10.87;51.58
29359;BME280;16347;53.232;6.556;2023-04-28T02:28:51;101491.69;;;10.77;52.53
29359;BME280;16347;53.232;6.556;2023-04-28T02:31:19;101487.66;;;10.81;52.45
29359;BME280;16347;53.232;6.556;2023-04-28T02:33:49;101494.97;;;10.81;52.77
29359;BME280;16347;53.232;6.556;2023-04-28T02:36:17;101489.97;;;10.76;53.20
29359;BME280;16347;53.232;6.556;2023-04-28T02:38:45;101489.97;;;10.67;53.67
29359;BME280;16347;53.232;6.556;2023-04-28T02:41:13;101490.38;;;10.72;53.74
29359;BME280;16347;53.232;6.556;2023-04-28T02:43:41;101485.50;;;10.75;53.79
29359;BME280;16347;53.232;6.556;2023-04-28T02:46:09;101476.47;;;10.75;53.82
29359;BME280;16347;53.232;6.556;2023-04-28T02:48:37;101485.38;;;10.67;54.48
29359;BME280;16347;53.232;6.556;2023-04-28T02:51:08;101470.19;;;10.74;54.50
29359;BME280;16347;53.232;6.556;2023-04-28T02:53:36;101467.19;;;10.77;53.92
29359;BME280;16347;53.232;6.556;2023-04-28T02:56:04;101460.16;;;10.75;54.58
29359;BME280;16347;53.232;6.556;2023-04-28T02:58:33;101464.59;;;10.76;54.63
29359;BME280;16347;53.232;6.556;2023-04-28T03:01:01;101463.03;;;10.83;54.61
29359;BME280;16347;53.232;6.556;2023-04-28T03:03:29;101452.47;;;10.70;54.29
29359;BME280;16347;53.232;6.556;2023-04-28T03:05:57;101444.41;;;10.78;54.64
29359;BME280;16347;53.232;6.556;2023-04-28T03:08:26;101448.31;;;10.66;54.47
29359;BME280;16347;53.232;6.556;2023-04-28T03:10:54;101446.84;;;10.81;54.71
29359;BME280;16347;53.232;6.556;2023-04-28T03:13:22;101444.38;;;10.88;54.77
29359;BME280;16347;53.232;6.556;2023-04-28T03:15:51;101444.44;;;10.69;55.02
29359;BME280;16347;53.232;6.556;2023-04-28T03:18:19;101434.41;;;10.79;54.72
29359;BME280;16347;53.232;6.556;2023-04-28T03:20:47;101432.13;;;10.84;54.40
29359;BME280;16347;53.232;6.556;2023-04-28T03:23:16;101431.81;;;10.87;54.47
29359;BME280;16347;53.232;6.556;2023-04-28T03:25:45;101422.50;;;10.90;54.48
29359;BME280;16347;53.232;6.556;2023-04-28T03:28:13;101416.91;;;10.81;54.39
29359;BME280;16347;53.232;6.556;2023-04-28T03:30:41;101419.06;;;10.78;54.17
29359;BME280;16347;53.232;6.556;2023-04-28T03:33:09;101407.50;;;10.76;53.96
29359;BME280;16347;53.232;6.556;2023-04-28T03:35:37;101411.38;;;10.73;54.05
29359;BME280;16347;53.232;6.556;2023-04-28T03:38:05;101404.19;;;10.72;54.21
29359;BME280;16347;53.232;6.556;2023-04-28T03:40:34;101396.06;;;10.63;54.27
29359;BME280;16347;53.232;6.556;2023-04-28T03:43:26;101396.47;;;10.68;54.39
29359;BME280;16347;53.232;6.556;2023-04-28T03:46:09;101394.47;;;10.70;54.22
29359;BME280;16347;53.232;6.556;2023-04-28T03:48:37;101387.19;;;10.70;54.47
29359;BME280;16347;53.232;6.556;2023-04-28T03:51:05;101391.47;;;10.73;54.11
29359;BME280;16347;53.232;6.556;2023-04-28T03:53:33;101392.66;;;10.61;54.23
29359;BME280;16347;53.232;6.556;2023-04-28T03:56:00;101390.34;;;10.66;53.80
29359;BME280;16347;53.232;6.556;2023-04-28T03:58:30;101390.34;;;10.66;53.90
29359;BME280;16347;53.232;6.556;2023-04-28T04:00:59;101380.16;;;10.68;54.29
29359;BME280;16347;53.232;6.556;2023-04-28T04:03:27;101376.13;;;10.72;53.96
29359;BME280;16347;53.232;6.556;2023-04-28T04:05:55;101382.75;;;10.69;53.97
29359;BME280;16347;53.232;6.556;2023-04-28T04:08:23;101382.31;;;10.55;54.74
29359;BME280;16347;53.232;6.556;2023-04-28T04:10:52;101381.34;;;10.56;54.41
29359;BME280;16347;53.232;6.556;2023-04-28T04:13:20;101381.47;;;10.54;54.28
29359;BME280;16347;53.232;6.556;2023-04-28T04:15:50;101373.59;;;10.51;54.31
29359;BME280;16347;53.232;6.556;2023-04-28T04:18:21;101379.19;;;10.59;54.12
29359;BME280;16347;53.232;6.556;2023-04-28T04:21:18;101367.16;;;10.62;54.76
29359;BME280;16347;53.232;6.556;2023-04-28T04:23:48;101366.75;;;10.57;54.75
29359;BME280;16347;53.232;6.556;2023-04-28T04:26:17;101374.00;;;10.66;54.84
29359;BME280;16347;53.232;6.556;2023-04-28T04:28:47;101360.00;;;10.70;54.20
29359;BME280;16347;53.232;6.556;2023-04-28T04:31:19;101359.41;;;10.67;54.07
29359;BME280;16347;53.232;6.556;2023-04-28T04:33:49;101357.28;;;10.70;54.34
29359;BME280;16347;53.232;6.556;2023-04-28T04:36:19;101356.44;;;10.60;54.15
29359;BME280;16347;53.232;6.556;2023-04-28T04:38:48;101353.53;;;10.71;54.64
29359;BME280;16347;53.232;6.556;2023-04-28T04:41:20;101354.09;;;10.75;54.11
29359;BME280;16347;53.232;6.556;2023-04-28T04:43:54;101349.38;;;10.77;54.47
29359;BME280;16347;53.232;6.556;2023-04-28T04:46:29;101342.63;;;10.71;54.14
29359;BME280;16347;53.232;6.556;2023-04-28T04:48:57;101342.81;;;10.70;54.73
29359;BME280;16347;53.232;6.556;2023-04-28T04:51:25;101338.50;;;10.77;54.26
29359;BME280;16347;53.232;6.556;2023-04-28T04:53:54;101344.78;;;10.68;54.21
29359;BME280;16347;53.232;6.556;2023-04-28T04:56:22;101336.78;;;10.76;54.33
29359;BME280;16347;53.232;6.556;2023-04-28T04:58:50;101336.47;;;10.79;54.38
29359;BME280;16347;53.232;6.556;2023-04-28T05:01:32;101330.72;;;10.82;54.46
29359;BME280;16347;53.232;6.556;2023-04-28T05:04:01;101332.88;;;10.78;53.98
29359;BME280;16347;53.232;6.556;2023-04-28T05:06:29;101328.31;;;10.79;53.86
29359;BME280;16347;53.232;6.556;2023-04-28T05:08:57;101326.44;;;10.79;54.16
29359;BME280;16347;53.232;6.556;2023-04-28T05:11:25;101325.00;;;10.85;53.91
29359;BME280;16347;53.232;6.556;2023-04-28T05:13:53;101324.13;;;10.85;54.08
29359;BME280;16347;53.232;6.556;2023-04-28T05:16:22;101310.25;;;10.78;54.53
29359;BME280;16347;53.232;6.556;2023-04-28T05:19:01;101303.28;;;10.75;54.16
29359;BME280;16347;53.232;6.556;2023-04-28T05:21:29;101303.28;;;10.75;53.96
29359;BME280;16347;53.232;6.556;2023-04-28T05:23:58;101307.44;;;10.70;54.09
29359;BME280;16347;53.232;6.556;2023-04-28T05:26:27;101317.72;;;10.76;54.91
29359;BME280;16347;53.232;6.556;2023-04-28T05:28:59;101310.00;;;10.81;54.18
29359;BME280;16347;53.232;6.556;2023-04-28T05:31:28;101316.47;;;10.70;54.12
29359;BME280;16347;53.232;6.556;2023-04-28T05:33:57;101316.31;;;10.72;54.48
29359;BME280;16347;53.232;6.556;2023-04-28T05:36:26;101313.16;;;10.76;54.83
29359;BME280;16347;53.232;6.556;2023-04-28T05:38:55;101317.00;;;10.84;54.73
29359;BME280;16347;53.232;6.556;2023-04-28T05:41:23;101306.81;;;10.86;53.97
29359;BME280;16347;53.232;6.556;2023-04-28T05:43:51;101302.66;;;10.81;54.08
29359;BME280;16347;53.232;6.556;2023-04-28T05:46:19;101296.41;;;10.81;54.25
29359;BME280;16347;53.232;6.556;2023-04-28T05:48:57;101304.25;;;10.84;53.94
29359;BME280;16347;53.232;6.556;2023-04-28T05:51:31;101299.81;;;10.83;54.70
29359;BME280;16347;53.232;6.556;2023-04-28T05:54:00;101289.50;;;10.87;54.53
29359;BME280;16347;53.232;6.556;2023-04-28T05:56:29;101294.94;;;10.87;54.23
29359;BME280;16347;53.232;6.556;2023-04-28T05:58:58;101293.31;;;10.94;54.26
29359;BME280;16347;53.232;6.556;2023-04-28T06:01:29;101295.56;;;10.98;53.49
29359;BME280;16347;53.232;6.556;2023-04-28T06:03:57;101296.91;;;10.94;53.93
29359;BME280;16347;53.232;6.556;2023-04-28T06:06:25;101286.03;;;10.94;53.65
29359;BME280;16347;53.232;6.556;2023-04-28T06:08:55;101288.63;;;10.86;54.00
29359;BME280;16347;53.232;6.556;2023-04-28T06:11:24;101290.75;;;10.92;53.56
29359;BME280;16347;53.232;6.556;2023-04-28T06:13:52;101280.97;;;10.99;53.68
29359;BME280;16347;53.232;6.556;2023-04-28T06:16:20;101281.97;;;10.98;53.66
29359;BME280;16347;53.232;6.556;2023-04-28T06:18:49;101266.38;;;11.00;53.28
29359;BME280;16347;53.232;6.556;2023-04-28T06:21:19;101267.47;;;11.07;53.21
29359;BME280;16347;53.232;6.556;2023-04-28T06:23:47;101267.88;;;11.12;52.52
29359;BME280;16347;53.232;6.556;2023-04-28T06:26:17;101278.94;;;11.01;52.49
29359;BME280;16347;53.232;6.556;2023-04-28T06:28:45;101271.06;;;11.08;52.82
29359;BME280;16347;53.232;6.556;2023-04-28T06:31:13;101270.03;;;11.09;52.40
29359;BME280;16347;53.232;6.556;2023-04-28T06:33:41;101260.00;;;11.09;52.06
29359;BME280;16347;53.232;6.556;2023-04-28T06:36:09;101262.47;;;11.03;52.06
29359;BME280;16347;53.232;6.556;2023-04-28T06:38:42;101263.59;;;11.10;52.11
29359;BME280;16347;53.232;6.556;2023-04-28T06:41:10;101262.44;;;11.12;51.92
29359;BME280;16347;53.232;6.556;2023-04-28T06:43:41;101265.56;;;11.17;52.12
29359;BME280;16347;53.232;6.556;2023-04-28T06:46:13;101271.56;;;11.21;51.54
29359;BME280;16347;53.232;6.556;2023-04-28T06:48:41;101259.81;;;11.20;51.75
29359;BME280;16347;53.232;6.556;2023-04-28T06:51:09;101251.66;;;11.20;51.36
29359;BME280;16347;53.232;6.556;2023-04-28T06:53:37;101247.88;;;11.21;51.93
29359;BME280;16347;53.232;6.556;2023-04-28T06:56:06;101245.28;;;11.29;51.84
29359;BME280;16347;53.232;6.556;2023-04-28T06:58:37;101244.72;;;11.26;51.38
29359;BME280;16347;53.232;6.556;2023-04-28T07:01:06;101240.81;;;11.28;51.83
29359;BME280;16347;53.232;6.556;2023-04-28T07:03:34;101240.47;;;11.41;51.87
29359;BME280;16347;53.232;6.556;2023-04-28T07:06:02;101244.44;;;11.47;51.79
29359;BME280;16347;53.232;6.556;2023-04-28T07:08:30;101237.28;;;11.46;51.84
29359;BME280;16347;53.232;6.556;2023-04-28T07:10:58;101235.63;;;11.53;51.46
29359;BME280;16347;53.232;6.556;2023-04-28T07:13:29;101230.19;;;11.53;51.25
29359;BME280;16347;53.232;6.556;2023-04-28T07:15:57;101230.75;;;11.56;51.42
29359;BME280;16347;53.232;6.556;2023-04-28T07:18:27;101244.75;;;11.61;52.00
29359;BME280;16347;53.232;6.556;2023-04-28T07:20:55;101240.53;;;11.67;51.26
29359;BME280;16347;53.232;6.556;2023-04-28T07:23:23;101237.66;;;11.68;51.86
29359;BME280;16347;53.232;6.556;2023-04-28T07:25:52;101237.94;;;11.75;51.28
29359;BME280;16347;53.232;6.556;2023-04-28T07:28:21;101240.34;;;11.78;51.34
29359;BME280;16347;53.232;6.556;2023-04-28T07:30:49;101235.72;;;11.78;51.32
29359;BME280;16347;53.232;6.556;2023-04-28T07:33:17;101239.50;;;11.77;50.87
29359;BME280;16347;53.232;6.556;2023-04-28T07:35:47;101238.31;;;11.80;51.11
29359;BME280;16347;53.232;6.556;2023-04-28T07:38:15;101240.72;;;11.83;50.82
29359;BME280;16347;53.232;6.556;2023-04-28T07:40:43;101234.59;;;11.81;50.45
29359;BME280;16347;53.232;6.556;2023-04-28T07:43:12;101228.97;;;11.82;51.24
29359;BME280;16347;53.232;6.556;2023-04-28T07:45:40;101218.91;;;11.83;50.72
29359;BME280;16347;53.232;6.556;2023-04-28T07:48:11;101206.63;;;11.79;51.40
29359;BME280;16347;53.232;6.556;2023-04-28T07:50:39;101213.78;;;11.80;51.17
29359;BME280;16347;53.232;6.556;2023-04-28T07:53:08;101213.94;;;11.78;51.10
29359;BME280;16347;53.232;6.556;2023-04-28T07:55:36;101205.94;;;11.77;51.42
29359;BME280;16347;53.232;6.556;2023-04-28T07:58:04;101212.94;;;11.79;50.99
29359;BME280;16347;53.232;6.556;2023-04-28T08:00:32;101207.88;;;11.85;51.09
29359;BME280;16347;53.232;6.556;2023-04-28T08:02:59;101205.53;;;11.90;51.47
29359;BME280;16347;53.232;6.556;2023-04-28T08:05:28;101201.06;;;11.89;51.26
29359;BME280;16347;53.232;6.556;2023-04-28T08:07:56;101205.06;;;11.94;51.35
29359;BME280;16347;53.232;6.556;2023-04-28T08:10:25;101210.00;;;11.99;51.45
29359;BME280;16347;53.232;6.556;2023-04-28T08:12:53;101201.00;;;11.98;50.63
29359;BME280;16347;53.232;6.556;2023-04-28T08:15:21;101209.78;;;11.92;50.21
29359;BME280;16347;53.232;6.556;2023-04-28T08:17:49;101209.66;;;11.94;50.51
29359;BME280;16347;53.232;6.556;2023-04-28T08:20:17;101210.34;;;11.96;50.78
29359;BME280;16347;53.232;6.556;2023-04-28T08:22:50;101204.72;;;11.97;51.04
29359;BME280;16347;53.232;6.556;2023-04-28T08:25:18;101211.41;;;12.03;50.91
29359;BME280;16347;53.232;6.556;2023-04-28T08:27:47;101211.63;;;12.09;50.65
29359;BME280;16347;53.232;6.556;2023-04-28T08:30:15;101209.94;;;12.08;51.77
29359;BME280;16347;53.232;6.556;2023-04-28T08:32:43;101215.06;;;12.11;51.32
29359;BME280;16347;53.232;6.556;2023-04-28T08:35:11;101218.66;;;12.12;51.37
29359;BME280;16347;53.232;6.556;2023-04-28T08:37:40;101215.75;;;12.13;51.56
29359;BME280;16347;53.232;6.556;2023-04-28T08:40:09;101209.66;;;12.19;51.73
29359;BME280;16347;53.232;6.556;2023-04-28T08:42:37;101216.50;;;12.23;52.14
29359;BME280;16347;53.232;6.556;2023-04-28T08:45:12;101217.56;;;12.30;52.00
29359;BME280;16347;53.232;6.556;2023-04-28T08:47:40;101213.66;;;12.33;51.54
29359;BME280;16347;53.232;6.556;2023-04-28T08:50:12;101207.34;;;12.32;51.52
29359;BME280;16347;53.232;6.556;2023-04-28T08:52:43;101206.72;;;12.39;51.36
29359;BME280;16347;53.232;6.556;2023-04-28T08:55:11;101204.81;;;12.39;51.71
29359;BME280;16347;53.232;6.556;2023-04-28T08:57:43;101196.81;;;12.38;51.63
29359;BME280;16347;53.232;6.556;2023-04-28T09:00:13;101192.06;;;12.40;52.34
29359;BME280;16347;53.232;6.556;2023-04-28T09:02:41;101201.28;;;12.47;52.52
29359;BME280;16347;53.232;6.556;2023-04-28T09:05:10;101197.03;;;12.44;53.66
29359;BME280;16347;53.232;6.556;2023-04-28T09:07:39;101210.00;;;12.50;54.36
29359;BME280;16347;53.232;6.556;2023-04-28T09:10:16;101205.28;;;12.52;55.05
29359;BME280;16347;53.232;6.556;2023-04-28T09:12:45;101190.44;;;12.55;54.69
29359;BME280;16347;53.232;6.556;2023-04-28T09:15:29;101180.06;;;12.66;54.64
29359;BME280;16347;53.232;6.556;2023-04-28T09:18:00;101170.03;;;12.67;54.89
29359;BME280;16347;53.232;6.556;2023-04-28T09:20:30;101163.75;;;12.74;55.31
29359;BME280;16347;53.232;6.556;2023-04-28T09:23:12;101167.16;;;12.76;55.55
29359;BME280;16347;53.232;6.556;2023-04-28T09:25:54;101148.78;;;12.86;55.30
29359;BME280;16347;53.232;6.556;2023-04-28T09:28:22;101142.78;;;12.83;55.37
29359;BME280;16347;53.232;6.556;2023-04-28T09:30:52;101143.13;;;12.80;55.56
29359;BME280;16347;53.232;6.556;2023-04-28T09:33:20;101146.03;;;12.78;55.48
29359;BME280;16347;53.232;6.556;2023-04-28T09:35:48;101142.59;;;12.76;55.07
29359;BME280;16347;53.232;6.556;2023-04-28T09:38:17;101128.13;;;12.84;54.85
29359;BME280;16347;53.232;6.556;2023-04-28T09:40:54;101136.50;;;12.82;54.58
29359;BME280;16347;53.232;6.556;2023-04-28T09:43:24;101131.53;;;12.86;54.60
29359;BME280;16347;53.232;6.556;2023-04-28T09:45:54;101132.06;;;12.90;54.27
29359;BME280;16347;53.232;6.556;2023-04-28T09:48:30;101130.03;;;12.92;54.29
29359;BME280;16347;53.232;6.556;2023-04-28T09:51:00;101117.78;;;12.96;54.47
29359;BME280;16347;53.232;6.556;2023-04-28T09:53:29;101119.63;;;13.03;54.97
29359;BME280;16347;53.232;6.556;2023-04-28T09:56:00;101114.25;;;13.11;54.45
29359;BME280;16347;53.232;6.556;2023-04-28T09:58:29;101115.44;;;13.17;54.54
29359;BME280;16347;53.232;6.556;2023-04-28T10:01:00;101117.84;;;13.28;53.98
29359;BME280;16347;53.232;6.556;2023-04-28T10:03:29;101116.31;;;13.42;53.80
29359;BME280;16347;53.232;6.556;2023-04-28T10:05:58;101098.38;;;13.47;53.13
29359;BME280;16347;53.232;6.556;2023-04-28T10:08:26;101105.06;;;13.53;53.33
29359;BME280;16347;53.232;6.556;2023-04-28T10:10:54;101102.63;;;13.58;53.40
29359;BME280;16347;53.232;6.556;2023-04-28T10:13:23;101096.47;;;13.64;52.84
29359;BME280;16347;53.232;6.556;2023-04-28T10:15:51;101097.19;;;13.66;52.64
29359;BME280;16347;53.232;6.556;2023-04-28T10:18:23;101094.44;;;13.66;52.49
29359;BME280;16347;53.232;6.556;2023-04-28T10:20:54;101094.97;;;13.69;52.42
29359;BME280;16347;53.232;6.556;2023-04-28T10:23:46;101092.88;;;13.79;53.10
29359;BME280;16347;53.232;6.556;2023-04-28T10:26:18;101088.44;;;13.78;52.80
29359;BME280;16347;53.232;6.556;2023-04-28T10:28:48;101072.56;;;13.82;52.78
29359;BME280;16347;53.232;6.556;2023-04-28T10:31:17;101062.63;;;13.89;53.04
29359;BME280;16347;53.232;6.556;2023-04-28T10:33:48;101072.50;;;13.98;53.22
29359;BME280;16347;53.232;6.556;2023-04-28T10:36:46;101070.94;;;14.12;53.02
29359;BME280;16347;53.232;6.556;2023-04-28T10:39:14;101071.59;;;14.14;52.74
29359;BME280;16347;53.232;6.556;2023-04-28T10:41:42;101072.78;;;14.19;52.31
29359;BME280;16347;53.232;6.556;2023-04-28T10:44:42;101074.09;;;14.31;52.17
29359;BME280;16347;53.232;6.556;2023-04-28T10:47:11;101072.56;;;14.29;52.70
29359;BME280;16347;53.232;6.556;2023-04-28T10:50:07;101073.78;;;14.26;52.35
29359;BME280;16347;53.232;6.556;2023-04-28T10:52:56;101072.56;;;14.29;52.32
29359;BME280;16347;53.232;6.556;2023-04-28T10:55:27;101079.06;;;14.28;52.33
29359;BME280;16347;53.232;6.556;2023-04-28T10:58:29;101064.69;;;14.34;52.98
29359;BME280;16347;53.232;6.556;2023-04-28T11:01:25;101064.34;;;14.37;53.21
29359;BME280;16347;53.232;6.556;2023-04-28T11:03:54;101060.63;;;14.30;53.92
29359;BME280;16347;53.232;6.556;2023-04-28T11:06:36;101067.25;;;14.27;54.68
29359;BME280;16347;53.232;6.556;2023-04-28T11:12:05;101060.13;;;14.26;55.95
29359;BME280;16347;53.232;6.556;2023-04-28T11:14:37;101056.69;;;14.24;56.58
29359;BME280;16347;53.232;6.556;2023-04-28T11:17:07;101062.16;;;14.24;57.00
29359;BME280;16347;53.232;6.556;2023-04-28T11:19:40;101058.75;;;14.22;57.52
29359;BME280;16347;53.232;6.556;2023-04-28T11:22:15;101051.44;;;14.15;57.86
29359;BME280;16347;53.232;6.556;2023-04-28T11:24:54;101051.94;;;14.18;58.41
29359;BME280;16347;53.232;6.556;2023-04-28T11:27:23;101053.28;;;14.22;58.58
29359;BME280;16347;53.232;6.556;2023-04-28T11:29:51;101050.34;;;14.24;58.70
29359;BME280;16347;53.232;6.556;2023-04-28T11:32:25;101046.28;;;14.20;59.13
29359;BME280;16347;53.232;6.556;2023-04-28T11:34:54;101040.81;;;14.20;59.15
29359;BME280;16347;53.232;6.556;2023-04-28T11:37:24;101039.41;;;14.24;59.40
29359;BME280;16347;53.232;6.556;2023-04-28T11:39:52;101036.50;;;14.25;59.40
29359;BME280;16347;53.232;6.556;2023-04-28T11:42:21;101035.72;;;14.17;60.23
29359;BME280;16347;53.232;6.556;2023-04-28T11:44:52;101034.84;;;14.16;60.18
29359;BME280;16347;53.232;6.556;2023-04-28T11:47:28;101019.44;;;14.23;60.60
29359;BME280;16347;53.232;6.556;2023-04-28T11:49:57;101014.44;;;14.27;60.01
29359;BME280;16347;53.232;6.556;2023-04-28T11:52:26;101015.78;;;14.31;60.34
29359;BME280;16347;53.232;6.556;2023-04-28T11:54:54;101016.16;;;14.36;60.55
29359;BME280;16347;53.232;6.556;2023-04-28T11:57:23;101024.16;;;14.37;60.68
29359;BME280;16347;53.232;6.556;2023-04-28T11:59:52;101019.75;;;14.36;60.91
29359;BME280;16347;53.232;6.556;2023-04-28T12:02:24;101023.16;;;14.38;60.98
29359;BME280;16347;53.232;6.556;2023-04-28T12:04:54;101025.88;;;14.38;61.09
29359;BME280;16347;53.232;6.556;2023-04-28T12:07:22;101016.66;;;14.40;61.02
29359;BME280;16347;53.232;6.556;2023-04-28T12:10:10;101008.25;;;14.41;61.09
29359;BME280;16347;53.232;6.556;2023-04-28T12:12:39;101006.72;;;14.38;60.98
29359;BME280;16347;53.232;6.556;2023-04-28T12:15:18;101015.59;;;14.41;60.83
29359;BME280;16347;53.232;6.556;2023-04-28T12:17:48;101014.09;;;14.38;60.83
29359;BME280;16347;53.232;6.556;2023-04-28T12:20:33;101009.09;;;14.42;60.88
29359;BME280;16347;53.232;6.556;2023-04-28T12:23:02;101009.16;;;14.33;60.50
29359;BME280;16347;53.232;6.556;2023-04-28T12:25:32;101012.56;;;14.35;60.49
29359;BME280;16347;53.232;6.556;2023-04-28T12:28:02;101008.13;;;14.34;60.65
29359;BME280;16347;53.232;6.556;2023-04-28T12:30:32;101011.72;;;14.35;60.48
29359;BME280;16347;53.232;6.556;2023-04-28T12:33:00;101007.75;;;14.37;60.28
29359;BME280;16347;53.232;6.556;2023-04-28T12:35:28;101003.34;;;14.36;60.24
29359;BME280;16347;53.232;6.556;2023-04-28T12:37:56;101012.03;;;14.40;60.33
29359;BME280;16347;53.232;6.556;2023-04-28T12:40:24;101002.78;;;14.41;60.51
29359;BME280;16347;53.232;6.556;2023-04-28T12:42:54;101008.94;;;14.43;60.75
29359;BME280;16347;53.232;6.556;2023-04-28T12:45:22;101004.97;;;14.46;60.76
29359;BME280;16347;53.232;6.556;2023-04-28T12:47:50;100999.69;;;14.44;60.80
29359;BME280;16347;53.232;6.556;2023-04-28T12:50:18;100998.50;;;14.47;61.14
29359;BME280;16347;53.232;6.556;2023-04-28T12:52:46;100995.41;;;14.50;61.19
29359;BME280;16347;53.232;6.556;2023-04-28T12:55:14;100994.34;;;14.51;61.54
29359;BME280;16347;53.232;6.556;2023-04-28T12:57:41;100992.94;;;14.55;61.52
29359;BME280;16347;53.232;6.556;2023-04-28T13:00:12;100996.38;;;14.57;62.20
29359;BME280;16347;53.232;6.556;2023-04-28T13:02:41;100989.47;;;14.61;62.48
29359;BME280;16347;53.232;6.556;2023-04-28T13:05:11;100987.81;;;14.60;63.02
29359;BME280;16347;53.232;6.556;2023-04-28T13:07:40;100979.03;;;14.64;63.39